sensor_id;sensor_type;location;lat;lon;timestamp;P1;durP1;ratioP1;P2;durP2;ratioP2
4833;SDS011;12895;51.064;7.028;2023-11-22T00:01:13;14.43;;;12.80;;
4833;SDS011;12895;51.064;7.028;2023-11-22T00:03:58;15.40;;;13.80;;
4833;SDS011;12895;51.064;7.028;2023-11-22T00:06:45;16.00;;;13.53;;
4833;SDS011;12895;51.064;7.028;2023-11-22T00:09:31;18.07;;;14.50;;
4833;SDS011;12895;51.064;7.028;2023-11-22T00:12:16;15.67;;;14.00;;
4833;SDS011;12895;51.064;7.028;2023-11-22T00:15:01;16.50;;;13.70;;
4833;SDS011;12895;51.064;7.028;2023-11-22T00:17:47;16.63;;;14.00;;
4833;SDS011;12895;51.064;7.028;2023-11-22T00:20:32;15.77;;;13.57;;
4833;SDS011;12895;51.064;7.028;2023-11-22T00:23:19;14.63;;;12.50;;
4833;SDS011;12895;51.064;7.028;2023-11-22T00:26:04;15.50;;;13.90;;
4833;SDS011;12895;51.064;7.028;2023-11-22T00:28:50;15.80;;;13.77;;
4833;SDS011;12895;51.064;7.028;2023-11-22T00:31:37;15.00;;;13.40;;
4833;SDS011;12895;51.064;7.028;2023-11-22T00:34:22;14.87;;;13.37;;
4833;SDS011;12895;51.064;7.028;2023-11-22T00:37:07;13.97;;;12.63;;
4833;SDS011;12895;51.064;7.028;2023-11-22T00:39:54;16.50;;;14.70;;
4833;SDS011;12895;51.064;7.028;2023-11-22T00:42:40;15.93;;;14.33;;
4833;SDS011;12895;51.064;7.028;2023-11-22T00:45:26;14.20;;;12.80;;
4833;SDS011;12895;51.064;7.028;2023-11-22T00:48:11;15.43;;;13.33;;
4833;SDS011;12895;51.064;7.028;2023-11-22T00:50:56;15.00;;;13.50;;
4833;SDS011;12895;51.064;7.028;2023-11-22T00:53:42;15.30;;;13.70;;
4833;SDS011;12895;51.064;7.028;2023-11-22T00:56:28;14.60;;;13.20;;
4833;SDS011;12895;51.064;7.028;2023-11-22T00:59:14;17.77;;;13.63;;
4833;SDS011;12895;51.064;7.028;2023-11-22T01:01:59;15.67;;;13.97;;
4833;SDS011;12895;51.064;7.028;2023-11-22T01:04:46;15.67;;;14.00;;
4833;SDS011;12895;51.064;7.028;2023-11-22T01:07:32;15.33;;;13.70;;
4833;SDS011;12895;51.064;7.028;2023-11-22T01:10:17;15.27;;;12.77;;
4833;SDS011;12895;51.064;7.028;2023-11-22T01:13:03;14.50;;;12.63;;
4833;SDS011;12895;51.064;7.028;2023-11-22T01:15:49;15.47;;;13.87;;
4833;SDS011;12895;51.064;7.028;2023-11-22T01:18:34;15.10;;;13.13;;
4833;SDS011;12895;51.064;7.028;2023-11-22T01:21:19;18.13;;;13.67;;
4833;SDS011;12895;51.064;7.028;2023-11-22T01:24:05;16.57;;;14.77;;
4833;SDS011;12895;51.064;7.028;2023-11-22T01:26:50;14.90;;;13.40;;
4833;SDS011;12895;51.064;7.028;2023-11-22T01:29:37;15.00;;;13.50;;
4833;SDS011;12895;51.064;7.028;2023-11-22T01:32:22;14.03;;;12.70;;
4833;SDS011;12895;51.064;7.028;2023-11-22T01:35:07;15.50;;;13.90;;
4833;SDS011;12895;51.064;7.028;2023-11-22T01:37:53;14.63;;;13.27;;
4833;SDS011;12895;51.064;7.028;2023-11-22T01:40:43;15.63;;;14.10;;
4833;SDS011;12895;51.064;7.028;2023-11-22T01:43:28;14.47;;;12.90;;
4833;SDS011;12895;51.064;7.028;2023-11-22T01:46:17;15.13;;;13.53;;
4833;SDS011;12895;51.064;7.028;2023-11-22T01:49:06;14.37;;;12.87;;
4833;SDS011;12895;51.064;7.028;2023-11-22T01:51:53;14.30;;;12.80;;
4833;SDS011;12895;51.064;7.028;2023-11-22T01:54:40;15.53;;;13.90;;
4833;SDS011;12895;51.064;7.028;2023-11-22T01:57:26;14.57;;;13.10;;
4833;SDS011;12895;51.064;7.028;2023-11-22T02:00:13;15.27;;;13.77;;
4833;SDS011;12895;51.064;7.028;2023-11-22T02:03:00;16.10;;;14.50;;
4833;SDS011;12895;51.064;7.028;2023-11-22T02:05:46;15.13;;;13.20;;
4833;SDS011;12895;51.064;7.028;2023-11-22T02:08:31;18.40;;;13.60;;
4833;SDS011;12895;51.064;7.028;2023-11-22T02:11:17;14.60;;;13.30;;
4833;SDS011;12895;51.064;7.028;2023-11-22T02:14:05;15.00;;;13.60;;
4833;SDS011;12895;51.064;7.028;2023-11-22T02:16:51;14.90;;;13.40;;
4833;SDS011;12895;51.064;7.028;2023-11-22T02:19:37;16.03;;;13.80;;
4833;SDS011;12895;51.064;7.028;2023-11-22T02:22:22;14.40;;;13.00;;
4833;SDS011;12895;51.064;7.028;2023-11-22T02:25:09;15.43;;;13.57;;
4833;SDS011;12895;51.064;7.028;2023-11-22T02:27:54;15.03;;;13.50;;
4833;SDS011;12895;51.064;7.028;2023-11-22T02:30:39;15.70;;;14.17;;
4833;SDS011;12895;51.064;7.028;2023-11-22T02:33:25;13.77;;;12.43;;
4833;SDS011;12895;51.064;7.028;2023-11-22T02:36:11;14.50;;;13.00;;
4833;SDS011;12895;51.064;7.028;2023-11-22T02:38:57;13.57;;;12.27;;
4833;SDS011;12895;51.064;7.028;2023-11-22T02:41:43;14.07;;;12.70;;
4833;SDS011;12895;51.064;7.028;2023-11-22T02:44:28;13.70;;;12.30;;
4833;SDS011;12895;51.064;7.028;2023-11-22T02:47:13;13.00;;;11.80;;
4833;SDS011;12895;51.064;7.028;2023-11-22T02:49:59;13.27;;;11.97;;
4833;SDS011;12895;51.064;7.028;2023-11-22T02:52:45;15.33;;;13.83;;
4833;SDS011;12895;51.064;7.028;2023-11-22T02:55:30;22.77;;;13.53;;
4833;SDS011;12895;51.064;7.028;2023-11-22T02:58:17;13.97;;;12.63;;
4833;SDS011;12895;51.064;7.028;2023-11-22T03:01:02;13.60;;;12.20;;
4833;SDS011;12895;51.064;7.028;2023-11-22T03:03:47;15.47;;;13.73;;
4833;SDS011;12895;51.064;7.028;2023-11-22T03:06:32;13.47;;;12.17;;
4833;SDS011;12895;51.064;7.028;2023-11-22T03:09:18;15.17;;;12.83;;
4833;SDS011;12895;51.064;7.028;2023-11-22T03:12:03;14.90;;;12.87;;
4833;SDS011;12895;51.064;7.028;2023-11-22T03:14:50;14.60;;;13.07;;
4833;SDS011;12895;51.064;7.028;2023-11-22T03:17:35;14.87;;;13.47;;
4833;SDS011;12895;51.064;7.028;2023-11-22T03:20:22;15.73;;;14.00;;
4833;SDS011;12895;51.064;7.028;2023-11-22T03:23:07;15.00;;;12.73;;
4833;SDS011;12895;51.064;7.028;2023-11-22T03:25:54;14.40;;;12.97;;
4833;SDS011;12895;51.064;7.028;2023-11-22T03:28:39;15.57;;;13.40;;
4833;SDS011;12895;51.064;7.028;2023-11-22T03:31:26;13.83;;;12.33;;
4833;SDS011;12895;51.064;7.028;2023-11-22T03:34:11;15.97;;;14.37;;
4833;SDS011;12895;51.064;7.028;2023-11-22T03:36:56;15.33;;;13.73;;
4833;SDS011;12895;51.064;7.028;2023-11-22T03:39:41;15.50;;;13.40;;
4833;SDS011;12895;51.064;7.028;2023-11-22T03:42:32;16.43;;;14.67;;
4833;SDS011;12895;51.064;7.028;2023-11-22T03:45:17;15.40;;;13.80;;
4833;SDS011;12895;51.064;7.028;2023-11-22T03:48:03;16.57;;;13.67;;
4833;SDS011;12895;51.064;7.028;2023-11-22T03:50:48;17.53;;;14.03;;
4833;SDS011;12895;51.064;7.028;2023-11-22T03:53:33;17.90;;;13.83;;
4833;SDS011;12895;51.064;7.028;2023-11-22T03:56:18;16.27;;;14.57;;
4833;SDS011;12895;51.064;7.028;2023-11-22T03:59:05;16.13;;;13.43;;
4833;SDS011;12895;51.064;7.028;2023-11-22T04:01:50;16.13;;;13.27;;
4833;SDS011;12895;51.064;7.028;2023-11-22T04:04:37;15.83;;;14.13;;
4833;SDS011;12895;51.064;7.028;2023-11-22T04:07:24;19.43;;;14.33;;
4833;SDS011;12895;51.064;7.028;2023-11-22T04:10:09;18.80;;;15.97;;
4833;SDS011;12895;51.064;7.028;2023-11-22T04:12:54;14.50;;;12.83;;
4833;SDS011;12895;51.064;7.028;2023-11-22T04:15:39;17.03;;;14.50;;
4833;SDS011;12895;51.064;7.028;2023-11-22T04:18:24;17.20;;;14.60;;
4833;SDS011;12895;51.064;7.028;2023-11-22T04:21:12;16.07;;;14.37;;
4833;SDS011;12895;51.064;7.028;2023-11-22T04:23:58;15.93;;;14.23;;
4833;SDS011;12895;51.064;7.028;2023-11-22T04:26:43;18.83;;;15.10;;
4833;SDS011;12895;51.064;7.028;2023-11-22T04:29:28;16.97;;;15.20;;
4833;SDS011;12895;51.064;7.028;2023-11-22T04:32:13;16.47;;;14.63;;
4833;SDS011;12895;51.064;7.028;2023-11-22T04:34:59;18.60;;;14.60;;
4833;SDS011;12895;51.064;7.028;2023-11-22T04:37:45;17.07;;;14.40;;
4833;SDS011;12895;51.064;7.028;2023-11-22T04:40:31;16.93;;;13.33;;
4833;SDS011;12895;51.064;7.028;2023-11-22T04:43:17;15.53;;;13.70;;
4833;SDS011;12895;51.064;7.028;2023-11-22T04:46:02;16.23;;;14.53;;
4833;SDS011;12895;51.064;7.028;2023-11-22T04:48:49;15.33;;;13.73;;
4833;SDS011;12895;51.064;7.028;2023-11-22T04:51:35;17.50;;;14.10;;
4833;SDS011;12895;51.064;7.028;2023-11-22T04:54:21;16.40;;;13.30;;
4833;SDS011;12895;51.064;7.028;2023-11-22T04:57:06;16.87;;;13.77;;
4833;SDS011;12895;51.064;7.028;2023-11-22T04:59:51;15.27;;;13.40;;
4833;SDS011;12895;51.064;7.028;2023-11-22T05:02:37;16.67;;;13.53;;
4833;SDS011;12895;51.064;7.028;2023-11-22T05:05:23;18.43;;;14.93;;
4833;SDS011;12895;51.064;7.028;2023-11-22T05:08:08;14.07;;;12.57;;
4833;SDS011;12895;51.064;7.028;2023-11-22T05:10:55;16.63;;;13.37;;
4833;SDS011;12895;51.064;7.028;2023-11-22T05:13:40;16.53;;;13.83;;
4833;SDS011;12895;51.064;7.028;2023-11-22T05:16:26;18.33;;;13.53;;
4833;SDS011;12895;51.064;7.028;2023-11-22T05:19:11;15.47;;;12.80;;
4833;SDS011;12895;51.064;7.028;2023-11-22T05:21:56;16.67;;;13.10;;
4833;SDS011;12895;51.064;7.028;2023-11-22T05:24:41;14.67;;;13.00;;
4833;SDS011;12895;51.064;7.028;2023-11-22T05:27:27;13.13;;;11.73;;
4833;SDS011;12895;51.064;7.028;2023-11-22T05:30:14;15.20;;;12.90;;
4833;SDS011;12895;51.064;7.028;2023-11-22T05:33:00;13.73;;;11.63;;
4833;SDS011;12895;51.064;7.028;2023-11-22T05:35:46;13.80;;;12.17;;
4833;SDS011;12895;51.064;7.028;2023-11-22T05:38:30;14.10;;;11.37;;
4833;SDS011;12895;51.064;7.028;2023-11-22T05:41:17;13.37;;;11.97;;
4833;SDS011;12895;51.064;7.028;2023-11-22T05:44:03;13.30;;;11.90;;
4833;SDS011;12895;51.064;7.028;2023-11-22T05:46:49;13.33;;;11.20;;
4833;SDS011;12895;51.064;7.028;2023-11-22T05:49:34;15.87;;;12.63;;
4833;SDS011;12895;51.064;7.028;2023-11-22T05:52:19;13.70;;;11.70;;
4833;SDS011;12895;51.064;7.028;2023-11-22T05:55:06;12.40;;;10.70;;
4833;SDS011;12895;51.064;7.028;2023-11-22T05:57:52;14.27;;;11.73;;
4833;SDS011;12895;51.064;7.028;2023-11-22T06:00:38;13.00;;;10.70;;
4833;SDS011;12895;51.064;7.028;2023-11-22T06:03:23;12.73;;;10.60;;
4833;SDS011;12895;51.064;7.028;2023-11-22T06:06:08;15.93;;;11.07;;
4833;SDS011;12895;51.064;7.028;2023-11-22T06:08:53;11.53;;;9.77;;
4833;SDS011;12895;51.064;7.028;2023-11-22T06:11:38;11.30;;;9.97;;
4833;SDS011;12895;51.064;7.028;2023-11-22T06:14:23;10.90;;;9.80;;
4833;SDS011;12895;51.064;7.028;2023-11-22T06:17:10;12.80;;;10.60;;
4833;SDS011;12895;51.064;7.028;2023-11-22T06:19:55;14.87;;;10.00;;
4833;SDS011;12895;51.064;7.028;2023-11-22T06:22:40;11.03;;;9.13;;
4833;SDS011;12895;51.064;7.028;2023-11-22T06:25:26;11.40;;;9.60;;
4833;SDS011;12895;51.064;7.028;2023-11-22T06:28:11;11.37;;;9.77;;
4833;SDS011;12895;51.064;7.028;2023-11-22T06:30:57;12.30;;;9.73;;
4833;SDS011;12895;51.064;7.028;2023-11-22T06:33:43;14.33;;;9.70;;
4833;SDS011;12895;51.064;7.028;2023-11-22T06:36:29;19.10;;;11.13;;
4833;SDS011;12895;51.064;7.028;2023-11-22T06:39:14;11.50;;;10.30;;
4833;SDS011;12895;51.064;7.028;2023-11-22T06:42:01;17.10;;;10.07;;
4833;SDS011;12895;51.064;7.028;2023-11-22T06:44:46;12.17;;;9.93;;
4833;SDS011;12895;51.064;7.028;2023-11-22T06:47:32;12.57;;;10.57;;
4833;SDS011;12895;51.064;7.028;2023-11-22T06:50:18;12.63;;;10.00;;
4833;SDS011;12895;51.064;7.028;2023-11-22T06:53:04;16.13;;;10.80;;
4833;SDS011;12895;51.064;7.028;2023-11-22T06:55:50;16.63;;;12.03;;
4833;SDS011;12895;51.064;7.028;2023-11-22T06:58:35;17.57;;;11.53;;
4833;SDS011;12895;51.064;7.028;2023-11-22T07:01:22;12.03;;;10.80;;
4833;SDS011;12895;51.064;7.028;2023-11-22T07:04:07;12.63;;;10.30;;
4833;SDS011;12895;51.064;7.028;2023-11-22T07:06:56;11.63;;;10.23;;
4833;SDS011;12895;51.064;7.028;2023-11-22T07:09:42;13.60;;;10.50;;
4833;SDS011;12895;51.064;7.028;2023-11-22T07:12:28;12.40;;;9.83;;
4833;SDS011;12895;51.064;7.028;2023-11-22T07:15:13;14.07;;;12.30;;
4833;SDS011;12895;51.064;7.028;2023-11-22T07:17:58;15.33;;;11.70;;
4833;SDS011;12895;51.064;7.028;2023-11-22T07:20:43;16.27;;;11.60;;
4833;SDS011;12895;51.064;7.028;2023-11-22T07:23:30;17.37;;;12.90;;
4833;SDS011;12895;51.064;7.028;2023-11-22T07:26:15;18.07;;;12.63;;
4833;SDS011;12895;51.064;7.028;2023-11-22T07:29:00;19.23;;;12.57;;
4833;SDS011;12895;51.064;7.028;2023-11-22T07:31:46;17.00;;;11.63;;
4833;SDS011;12895;51.064;7.028;2023-11-22T07:34:31;14.73;;;10.90;;
4833;SDS011;12895;51.064;7.028;2023-11-22T07:37:16;18.20;;;11.80;;
4833;SDS011;12895;51.064;7.028;2023-11-22T07:40:04;17.37;;;12.47;;
4833;SDS011;12895;51.064;7.028;2023-11-22T07:42:49;13.80;;;11.30;;
4833;SDS011;12895;51.064;7.028;2023-11-22T07:45:34;13.73;;;11.30;;
4833;SDS011;12895;51.064;7.028;2023-11-22T07:48:21;12.73;;;10.90;;
4833;SDS011;12895;51.064;7.028;2023-11-22T07:51:06;13.83;;;10.50;;
4833;SDS011;12895;51.064;7.028;2023-11-22T07:53:52;12.63;;;10.60;;
4833;SDS011;12895;51.064;7.028;2023-11-22T07:56:38;12.80;;;10.80;;
4833;SDS011;12895;51.064;7.028;2023-11-22T07:59:26;10.97;;;9.87;;
4833;SDS011;12895;51.064;7.028;2023-11-22T08:02:11;10.40;;;9.10;;
4833;SDS011;12895;51.064;7.028;2023-11-22T08:04:56;11.27;;;9.70;;
4833;SDS011;12895;51.064;7.028;2023-11-22T08:07:45;12.57;;;9.43;;
4833;SDS011;12895;51.064;7.028;2023-11-22T08:10:30;11.77;;;9.07;;
4833;SDS011;12895;51.064;7.028;2023-11-22T08:13:17;9.80;;;8.80;;
4833;SDS011;12895;51.064;7.028;2023-11-22T08:16:03;11.37;;;9.97;;
4833;SDS011;12895;51.064;7.028;2023-11-22T08:18:50;10.43;;;9.10;;
4833;SDS011;12895;51.064;7.028;2023-11-22T08:21:35;11.80;;;9.77;;
4833;SDS011;12895;51.064;7.028;2023-11-22T08:24:21;16.47;;;9.90;;
4833;SDS011;12895;51.064;7.028;2023-11-22T08:27:06;10.90;;;8.60;;
4833;SDS011;12895;51.064;7.028;2023-11-22T08:29:53;10.13;;;8.70;;
4833;SDS011;12895;51.064;7.028;2023-11-22T08:32:40;9.70;;;8.70;;
4833;SDS011;12895;51.064;7.028;2023-11-22T08:35:25;10.43;;;9.33;;
4833;SDS011;12895;51.064;7.028;2023-11-22T08:38:11;9.67;;;8.10;;
4833;SDS011;12895;51.064;7.028;2023-11-22T08:40:56;11.53;;;8.23;;
4833;SDS011;12895;51.064;7.028;2023-11-22T08:43:41;8.47;;;7.47;;
4833;SDS011;12895;51.064;7.028;2023-11-22T08:46:28;11.30;;;6.90;;
4833;SDS011;12895;51.064;7.028;2023-11-22T08:49:13;7.33;;;6.60;;
4833;SDS011;12895;51.064;7.028;2023-11-22T08:51:59;8.50;;;7.50;;
4833;SDS011;12895;51.064;7.028;2023-11-22T08:54:46;8.63;;;6.20;;
4833;SDS011;12895;51.064;7.028;2023-11-22T08:57:31;6.60;;;6.00;;
4833;SDS011;12895;51.064;7.028;2023-11-22T09:00:17;5.83;;;5.23;;
4833;SDS011;12895;51.064;7.028;2023-11-22T09:03:07;7.60;;;6.90;;
4833;SDS011;12895;51.064;7.028;2023-11-22T09:05:55;18.10;;;7.80;;
4833;SDS011;12895;51.064;7.028;2023-11-22T09:08:40;10.30;;;8.03;;
4833;SDS011;12895;51.064;7.028;2023-11-22T09:11:25;7.33;;;6.67;;
4833;SDS011;12895;51.064;7.028;2023-11-22T09:14:11;12.00;;;6.80;;
4833;SDS011;12895;51.064;7.028;2023-11-22T09:16:56;6.97;;;5.00;;
4833;SDS011;12895;51.064;7.028;2023-11-22T09:19:43;9.10;;;4.30;;
4833;SDS011;12895;51.064;7.028;2023-11-22T09:22:28;4.43;;;4.03;;
4833;SDS011;12895;51.064;7.028;2023-11-22T09:25:13;5.00;;;4.23;;
4833;SDS011;12895;51.064;7.028;2023-11-22T09:28:00;4.20;;;3.90;;
4833;SDS011;12895;51.064;7.028;2023-11-22T09:30:45;5.50;;;4.40;;
4833;SDS011;12895;51.064;7.028;2023-11-22T09:33:33;4.87;;;4.37;;
4833;SDS011;12895;51.064;7.028;2023-11-22T09:36:19;4.63;;;3.30;;
4833;SDS011;12895;51.064;7.028;2023-11-22T09:39:05;4.10;;;3.20;;
4833;SDS011;12895;51.064;7.028;2023-11-22T09:41:54;4.00;;;3.20;;
4833;SDS011;12895;51.064;7.028;2023-11-22T09:44:40;3.20;;;2.97;;
4833;SDS011;12895;51.064;7.028;2023-11-22T09:47:25;4.43;;;3.10;;
4833;SDS011;12895;51.064;7.028;2023-11-22T09:50:11;4.13;;;3.77;;
4833;SDS011;12895;51.064;7.028;2023-11-22T09:53:00;5.27;;;3.63;;
4833;SDS011;12895;51.064;7.028;2023-11-22T09:55:47;2.73;;;2.50;;
4833;SDS011;12895;51.064;7.028;2023-11-22T09:58:33;12.70;;;3.90;;
4833;SDS011;12895;51.064;7.028;2023-11-22T10:01:18;8.30;;;3.40;;
4833;SDS011;12895;51.064;7.028;2023-11-22T10:04:03;3.03;;;2.67;;
4833;SDS011;12895;51.064;7.028;2023-11-22T10:06:49;4.70;;;3.67;;
4833;SDS011;12895;51.064;7.028;2023-11-22T10:09:36;6.00;;;3.30;;
4833;SDS011;12895;51.064;7.028;2023-11-22T10:12:21;12.00;;;3.23;;
4833;SDS011;12895;51.064;7.028;2023-11-22T10:15:13;7.87;;;2.90;;
4833;SDS011;12895;51.064;7.028;2023-11-22T10:17:59;2.90;;;2.70;;
4833;SDS011;12895;51.064;7.028;2023-11-22T10:20:45;8.90;;;2.53;;
4833;SDS011;12895;51.064;7.028;2023-11-22T10:23:31;2.80;;;2.60;;
4833;SDS011;12895;51.064;7.028;2023-11-22T10:26:17;5.83;;;2.50;;
4833;SDS011;12895;51.064;7.028;2023-11-22T10:29:03;2.53;;;1.97;;
4833;SDS011;12895;51.064;7.028;2023-11-22T10:31:48;2.90;;;2.60;;
4833;SDS011;12895;51.064;7.028;2023-11-22T10:34:33;2.93;;;2.20;;
4833;SDS011;12895;51.064;7.028;2023-11-22T10:37:23;7.73;;;2.30;;
4833;SDS011;12895;51.064;7.028;2023-11-22T10:40:10;3.33;;;2.00;;
4833;SDS011;12895;51.064;7.028;2023-11-22T10:42:58;4.57;;;1.90;;
4833;SDS011;12895;51.064;7.028;2023-11-22T10:45:44;1.83;;;1.73;;
4833;SDS011;12895;51.064;7.028;2023-11-22T10:48:32;5.10;;;1.57;;
4833;SDS011;12895;51.064;7.028;2023-11-22T10:51:17;2.43;;;2.07;;
4833;SDS011;12895;51.064;7.028;2023-11-22T10:54:04;4.27;;;2.00;;
4833;SDS011;12895;51.064;7.028;2023-11-22T10:56:53;2.50;;;1.93;;
4833;SDS011;12895;51.064;7.028;2023-11-22T10:59:41;2.20;;;2.00;;
4833;SDS011;12895;51.064;7.028;2023-11-22T11:02:28;3.10;;;2.80;;
4833;SDS011;12895;51.064;7.028;2023-11-22T11:05:15;3.67;;;2.70;;
4833;SDS011;12895;51.064;7.028;2023-11-22T11:08:02;3.33;;;2.90;;
4833;SDS011;12895;51.064;7.028;2023-11-22T11:10:53;4.00;;;2.63;;
4833;SDS011;12895;51.064;7.028;2023-11-22T11:13:40;2.07;;;1.90;;
4833;SDS011;12895;51.064;7.028;2023-11-22T11:16:28;9.33;;;2.40;;
4833;SDS011;12895;51.064;7.028;2023-11-22T11:19:15;1.90;;;1.80;;
4833;SDS011;12895;51.064;7.028;2023-11-22T11:22:02;15.60;;;2.83;;
4833;SDS011;12895;51.064;7.028;2023-11-22T11:24:48;12.93;;;3.40;;
4833;SDS011;12895;51.064;7.028;2023-11-22T11:27:45;5.87;;;2.83;;
4833;SDS011;12895;51.064;7.028;2023-11-22T11:30:40;4.50;;;2.40;;
4833;SDS011;12895;51.064;7.028;2023-11-22T11:33:33;2.47;;;2.27;;
4833;SDS011;12895;51.064;7.028;2023-11-22T11:36:21;5.67;;;2.57;;
4833;SDS011;12895;51.064;7.028;2023-11-22T11:39:07;4.23;;;2.63;;
4833;SDS011;12895;51.064;7.028;2023-11-22T11:42:07;8.20;;;2.43;;
4833;SDS011;12895;51.064;7.028;2023-11-22T11:45:03;2.00;;;1.80;;
4833;SDS011;12895;51.064;7.028;2023-11-22T11:47:49;2.23;;;2.07;;
4833;SDS011;12895;51.064;7.028;2023-11-22T11:50:36;1.87;;;1.77;;
4833;SDS011;12895;51.064;7.028;2023-11-22T11:53:21;2.30;;;2.10;;
4833;SDS011;12895;51.064;7.028;2023-11-22T11:56:07;2.40;;;2.20;;
4833;SDS011;12895;51.064;7.028;2023-11-22T11:58:55;4.03;;;2.53;;
4833;SDS011;12895;51.064;7.028;2023-11-22T12:01:42;2.67;;;1.80;;
4833;SDS011;12895;51.064;7.028;2023-11-22T12:04:27;2.40;;;2.20;;
4833;SDS011;12895;51.064;7.028;2023-11-22T12:07:14;2.33;;;2.13;;
4833;SDS011;12895;51.064;7.028;2023-11-22T12:09:59;3.90;;;2.20;;
4833;SDS011;12895;51.064;7.028;2023-11-22T12:12:44;4.87;;;1.93;;
4833;SDS011;12895;51.064;7.028;2023-11-22T12:15:30;3.30;;;1.60;;
4833;SDS011;12895;51.064;7.028;2023-11-22T12:18:16;5.83;;;2.10;;
4833;SDS011;12895;51.064;7.028;2023-11-22T12:21:02;1.60;;;1.50;;
4833;SDS011;12895;51.064;7.028;2023-11-22T12:23:49;1.97;;;1.80;;
4833;SDS011;12895;51.064;7.028;2023-11-22T12:26:35;1.90;;;1.73;;
4833;SDS011;12895;51.064;7.028;2023-11-22T12:29:21;2.10;;;1.83;;
4833;SDS011;12895;51.064;7.028;2023-11-22T12:32:09;2.13;;;1.93;;
4833;SDS011;12895;51.064;7.028;2023-11-22T12:34:55;3.00;;;2.10;;
4833;SDS011;12895;51.064;7.028;2023-11-22T12:37:40;2.03;;;1.83;;
4833;SDS011;12895;51.064;7.028;2023-11-22T12:40:28;2.10;;;1.40;;
4833;SDS011;12895;51.064;7.028;2023-11-22T12:43:14;3.30;;;3.00;;
4833;SDS011;12895;51.064;7.028;2023-11-22T12:46:00;10.30;;;8.40;;
4833;SDS011;12895;51.064;7.028;2023-11-22T12:48:45;7.57;;;6.77;;
4833;SDS011;12895;51.064;7.028;2023-11-22T12:51:30;10.00;;;6.37;;
4833;SDS011;12895;51.064;7.028;2023-11-22T12:54:16;6.20;;;5.43;;
4833;SDS011;12895;51.064;7.028;2023-11-22T12:57:02;6.47;;;5.30;;
4833;SDS011;12895;51.064;7.028;2023-11-22T12:59:50;6.57;;;4.60;;
4833;SDS011;12895;51.064;7.028;2023-11-22T13:02:37;16.93;;;9.87;;
4833;SDS011;12895;51.064;7.028;2023-11-22T13:05:23;9.00;;;7.03;;
4833;SDS011;12895;51.064;7.028;2023-11-22T13:11:43;3.77;;;3.47;;
4833;SDS011;12895;51.064;7.028;2023-11-22T13:14:29;10.00;;;5.40;;
4833;SDS011;12895;51.064;7.028;2023-11-22T13:17:19;4.40;;;4.00;;
4833;SDS011;12895;51.064;7.028;2023-11-22T13:20:06;4.53;;;4.10;;
4833;SDS011;12895;51.064;7.028;2023-11-22T13:22:57;5.50;;;4.13;;
4833;SDS011;12895;51.064;7.028;2023-11-22T13:25:43;5.70;;;4.30;;
4833;SDS011;12895;51.064;7.028;2023-11-22T13:28:30;5.70;;;3.53;;
4833;SDS011;12895;51.064;7.028;2023-11-22T13:31:16;4.80;;;4.30;;
4833;SDS011;12895;51.064;7.028;2023-11-22T13:34:01;7.57;;;4.63;;
4833;SDS011;12895;51.064;7.028;2023-11-22T13:36:47;5.90;;;4.53;;
4833;SDS011;12895;51.064;7.028;2023-11-22T13:39:32;5.23;;;4.73;;
4833;SDS011;12895;51.064;7.028;2023-11-22T13:42:17;5.97;;;4.93;;
4833;SDS011;12895;51.064;7.028;2023-11-22T13:45:02;6.27;;;4.93;;
4833;SDS011;12895;51.064;7.028;2023-11-22T13:47:50;4.90;;;4.40;;
4833;SDS011;12895;51.064;7.028;2023-11-22T13:50:43;5.37;;;4.87;;
4833;SDS011;12895;51.064;7.028;2023-11-22T13:53:28;5.43;;;4.93;;
4833;SDS011;12895;51.064;7.028;2023-11-22T13:56:18;7.73;;;4.63;;
4833;SDS011;12895;51.064;7.028;2023-11-22T13:59:04;6.57;;;5.10;;
4833;SDS011;12895;51.064;7.028;2023-11-22T14:01:49;5.37;;;4.83;;
4833;SDS011;12895;51.064;7.028;2023-11-22T14:04:36;5.10;;;4.60;;
4833;SDS011;12895;51.064;7.028;2023-11-22T14:07:23;5.00;;;4.60;;
4833;SDS011;12895;51.064;7.028;2023-11-22T14:10:11;6.00;;;4.77;;
4833;SDS011;12895;51.064;7.028;2023-11-22T14:13:00;6.17;;;5.10;;
4833;SDS011;12895;51.064;7.028;2023-11-22T14:15:47;7.03;;;4.50;;
4833;SDS011;12895;51.064;7.028;2023-11-22T14:18:31;3.53;;;3.23;;
4833;SDS011;12895;51.064;7.028;2023-11-22T14:21:18;8.03;;;3.77;;
4833;SDS011;12895;51.064;7.028;2023-11-22T14:24:03;5.70;;;3.90;;
4833;SDS011;12895;51.064;7.028;2023-11-22T14:26:49;4.13;;;3.70;;
4833;SDS011;12895;51.064;7.028;2023-11-22T14:29:35;3.77;;;3.30;;
4833;SDS011;12895;51.064;7.028;2023-11-22T14:32:20;3.50;;;3.20;;
4833;SDS011;12895;51.064;7.028;2023-11-22T14:35:07;3.37;;;3.07;;
4833;SDS011;12895;51.064;7.028;2023-11-22T14:37:54;2.80;;;2.60;;
4833;SDS011;12895;51.064;7.028;2023-11-22T14:40:42;3.63;;;3.33;;
4833;SDS011;12895;51.064;7.028;2023-11-22T14:43:27;4.80;;;3.90;;
4833;SDS011;12895;51.064;7.028;2023-11-22T14:46:12;11.43;;;4.80;;
4833;SDS011;12895;51.064;7.028;2023-11-22T14:48:57;6.27;;;3.97;;
4833;SDS011;12895;51.064;7.028;2023-11-22T14:51:42;4.67;;;4.27;;
4833;SDS011;12895;51.064;7.028;2023-11-22T14:54:29;5.90;;;4.20;;
4833;SDS011;12895;51.064;7.028;2023-11-22T14:57:17;5.07;;;4.10;;
4833;SDS011;12895;51.064;7.028;2023-11-22T15:00:02;5.77;;;4.33;;
4833;SDS011;12895;51.064;7.028;2023-11-22T15:02:49;15.53;;;7.00;;
4833;SDS011;12895;51.064;7.028;2023-11-22T15:05:35;6.83;;;4.53;;
4833;SDS011;12895;51.064;7.028;2023-11-22T15:08:20;4.27;;;3.30;;
4833;SDS011;12895;51.064;7.028;2023-11-22T15:11:07;7.40;;;4.10;;
4833;SDS011;12895;51.064;7.028;2023-11-22T15:13:52;3.40;;;3.10;;
4833;SDS011;12895;51.064;7.028;2023-11-22T15:16:37;4.17;;;3.23;;
4833;SDS011;12895;51.064;7.028;2023-11-22T15:19:23;8.50;;;3.80;;
4833;SDS011;12895;51.064;7.028;2023-11-22T15:22:11;4.60;;;3.10;;
4833;SDS011;12895;51.064;7.028;2023-11-22T15:24:57;5.43;;;2.90;;
4833;SDS011;12895;51.064;7.028;2023-11-22T15:27:48;4.93;;;3.03;;
4833;SDS011;12895;51.064;7.028;2023-11-22T15:30:33;3.90;;;3.47;;
4833;SDS011;12895;51.064;7.028;2023-11-22T15:33:19;5.77;;;3.80;;
4833;SDS011;12895;51.064;7.028;2023-11-22T15:36:06;10.10;;;4.40;;
4833;SDS011;12895;51.064;7.028;2023-11-22T15:38:52;5.00;;;4.50;;
4833;SDS011;12895;51.064;7.028;2023-11-22T15:41:37;5.00;;;4.30;;
4833;SDS011;12895;51.064;7.028;2023-11-22T15:44:25;6.00;;;5.40;;
4833;SDS011;12895;51.064;7.028;2023-11-22T15:47:10;5.90;;;4.60;;
4833;SDS011;12895;51.064;7.028;2023-11-22T15:49:57;8.47;;;6.20;;
4833;SDS011;12895;51.064;7.028;2023-11-22T15:52:42;5.80;;;5.20;;
4833;SDS011;12895;51.064;7.028;2023-11-22T15:55:28;7.50;;;6.10;;
4833;SDS011;12895;51.064;7.028;2023-11-22T15:58:13;13.40;;;6.90;;
4833;SDS011;12895;51.064;7.028;2023-11-22T16:00:59;8.73;;;7.27;;
4833;SDS011;12895;51.064;7.028;2023-11-22T16:03:46;7.83;;;7.13;;
4833;SDS011;12895;51.064;7.028;2023-11-22T16:06:34;13.67;;;8.77;;
4833;SDS011;12895;51.064;7.028;2023-11-22T16:09:19;11.20;;;7.63;;
4833;SDS011;12895;51.064;7.028;2023-11-22T16:12:05;9.23;;;7.10;;
4833;SDS011;12895;51.064;7.028;2023-11-22T16:14:52;11.63;;;6.90;;
4833;SDS011;12895;51.064;7.028;2023-11-22T16:17:39;8.77;;;7.10;;
4833;SDS011;12895;51.064;7.028;2023-11-22T16:20:24;8.80;;;6.93;;
4833;SDS011;12895;51.064;7.028;2023-11-22T16:23:10;9.43;;;8.10;;
4833;SDS011;12895;51.064;7.028;2023-11-22T16:25:55;12.83;;;8.57;;
4833;SDS011;12895;51.064;7.028;2023-11-22T16:28:41;10.37;;;8.43;;
4833;SDS011;12895;51.064;7.028;2023-11-22T16:31:26;13.00;;;9.27;;
4833;SDS011;12895;51.064;7.028;2023-11-22T16:34:13;11.53;;;9.03;;
4833;SDS011;12895;51.064;7.028;2023-11-22T16:36:59;10.90;;;9.73;;
4833;SDS011;12895;51.064;7.028;2023-11-22T16:39:44;11.90;;;7.73;;
4833;SDS011;12895;51.064;7.028;2023-11-22T16:42:29;11.37;;;8.97;;
4833;SDS011;12895;51.064;7.028;2023-11-22T16:45:14;8.70;;;7.43;;